Terminal Aerodrome Forecast
Issued by NWS Milwaukee/Sullivan, WI

Home | Current Version | Previous Version | Text Only | Print | Product List | Glossary On
Versions: 1 2 3 4 5 6 7 8 9 10 11 12 13 14 15 16 17 18 19 20 21 22 23 24 25 26 27 28 29 30 31
000
FTUS43 KMKX 241157 AAA
TAFMKE
TAF AMD
KMKE 241157Z 2412/2518 06007KT P6SM SCT050 OVC110
     FM241400 10013KT P6SM BKN050
     FM241700 12017G25KT P6SM OVC120
     FM242200 12016G22KT P6SM -SHRA OVC040
     FM250300 10009KT 4SM -RA OVC035
     FM250500 08006KT 6SM -RA OVC015
     FM251000 02005KT P6SM OVC007=

USA.gov is the U.S. government's official web portal to all federal, state and local government web resources and services.